Time;durP1;ratioP1;P1;durP2;ratioP2;P2;SDS_P1;SDS_P2;PMS_P1;PMS_P2;Temp;Humidity;BMP_temperature;BMP_pressure;BME280_temperature;BME280_humidity;BME280_pressure;Samples;Min_cycle;Max_cycle;Signal;HPM_P1;HPM_P2
2022/05/17 00:02:52;;;;;;;5.10;3.00;;;11.10;1.00;;;;;;10370895;28;20275;-83
2022/05/17 00:08:15;;;;;;;6.57;2.72;;;11.00;1.00;;;;;;10383331;28;20263;-83
2022/05/17 00:13:37;;;;;;;3.60;2.40;;;11.00;1.00;;;;;;10385503;28;20201;-84
2022/05/17 00:18:58;;;;;;;3.93;1.67;;;11.00;1.00;;;;;;10384015;28;20197;-82
2022/05/17 00:24:22;;;;;;;6.05;2.30;;;10.90;1.00;;;;;;10383498;28;20271;-82
2022/05/17 00:29:44;;;;;;;3.73;1.70;;;10.90;1.00;;;;;;10370367;28;20201;-83
2022/05/17 00:35:08;;;;;;;5.78;2.15;;;10.90;1.00;;;;;;10370564;28;20305;-83
2022/05/17 00:40:30;;;;;;;3.58;1.92;;;10.80;99.90;;;;;;10370390;28;20202;-83
2022/05/17 00:45:53;;;;;;;6.70;2.10;;;10.80;99.90;;;;;;10394604;28;20234;-83
2022/05/17 00:51:14;;;;;;;4.70;1.55;;;10.70;99.90;;;;;;10368854;28;20242;-84
2022/05/17 00:56:48;;;;;;;2.60;1.50;;;10.70;99.90;;;;;;10368671;28;20652;-80
2022/05/17 01:02:10;;;;;;;3.17;1.50;;;10.60;99.90;;;;;;10367937;28;20237;-82
2022/05/17 01:07:40;;;;;;;4.87;2.57;;;10.60;99.90;;;;;;10381068;28;20205;-81
2022/05/17 01:18:43;;;;;;;3.90;1.70;;;10.60;1.00;;;;;;10407609;28;20349;-81
2022/05/17 01:24:05;;;;;;;3.17;1.33;;;10.50;1.00;;;;;;10381040;28;20282;-82
2022/05/17 01:29:27;;;;;;;3.43;1.67;;;10.50;32.70;;;;;;10367516;28;20231;-82
2022/05/17 01:34:49;;;;;;;6.83;2.30;;;10.40;99.90;;;;;;10394822;28;20290;-82
2022/05/17 01:40:10;;;;;;;9.07;2.73;;;10.30;99.90;;;;;;10381123;28;20224;-82
2022/05/17 01:45:32;;;;;;;3.60;2.10;;;10.20;99.90;;;;;;10374877;28;20300;-81
2022/05/17 01:50:53;;;;;;;4.57;2.23;;;10.10;1.00;;;;;;10353892;28;20212;-81
2022/05/17 01:56:15;;;;;;;4.30;2.20;;;9.90;1.00;;;;;;10353778;28;20509;-82
2022/05/17 02:01:37;;;;;;;4.87;1.90;;;9.80;1.00;;;;;;10352901;28;20206;-82
2022/05/17 02:06:58;;;;;;;5.90;2.10;;;9.70;1.00;;;;;;10370483;28;20468;-84
2022/05/17 02:12:20;;;;;;;3.23;1.80;;;9.50;1.00;;;;;;10380779;28;20192;-81
2022/05/17 02:17:42;;;;;;;4.80;2.10;;;9.40;1.00;;;;;;10379521;28;20204;-81
2022/05/17 02:23:03;;;;;;;4.10;1.80;;;9.30;1.00;;;;;;10351991;28;20236;-80
2022/05/17 02:28:25;;;;;;;4.20;2.27;;;9.30;1.00;;;;;;10364965;28;20195;-82
2022/05/17 02:33:47;;;;;;;4.90;2.10;;;9.20;1.00;;;;;;10365506;28;20279;-81
2022/05/17 02:39:08;;;;;;;5.20;2.33;;;9.30;1.00;;;;;;10365490;28;20238;-82
2022/05/17 02:44:31;;;;;;;6.20;2.60;;;9.20;1.00;;;;;;10364769;28;20228;-80
2022/05/17 02:49:53;;;;;;;7.40;2.23;;;9.20;1.00;;;;;;10393083;28;20203;-81
2022/05/17 02:55:15;;;;;;;4.70;2.03;;;9.10;1.00;;;;;;10379260;28;20204;-81
2022/05/17 03:00:36;;;;;;;4.83;1.67;;;9.00;1.00;;;;;;10392176;28;20246;-81
2022/05/17 03:05:59;;;;;;;4.33;2.00;;;8.90;1.00;;;;;;10377862;28;20227;-81
2022/05/17 03:11:21;;;;;;;3.93;1.60;;;8.90;1.00;;;;;;10329090;28;20244;-81
2022/05/17 03:16:42;;;;;;;3.13;1.77;;;8.80;1.00;;;;;;10373411;28;20243;-81
2022/05/17 03:22:04;;;;;;;2.80;1.90;;;8.80;1.00;;;;;;10396420;28;20211;-81
2022/05/17 03:27:26;;;;;;;3.83;1.80;;;8.90;1.00;;;;;;10372004;28;20203;-81
2022/05/17 03:32:47;;;;;;;6.40;2.37;;;8.90;1.00;;;;;;10386098;28;20260;-82
2022/05/17 03:38:09;;;;;;;3.07;1.77;;;9.00;1.00;;;;;;10371589;28;20211;-81
2022/05/17 03:43:31;;;;;;;4.87;1.67;;;9.10;1.00;;;;;;10371057;28;20227;-80
2022/05/17 03:48:53;;;;;;;11.17;1.87;;;9.10;1.00;;;;;;10395566;28;20525;-81
2022/05/17 03:54:18;;;;;;;4.83;2.63;;;9.20;1.00;;;;;;10439858;28;20286;-83
2022/05/17 03:59:40;;;;;;;9.00;4.67;;;9.20;1.00;;;;;;10411859;28;20221;-81
2022/05/17 04:05:02;;;;;;;8.90;5.27;;;9.30;1.00;;;;;;10394720;28;20234;-82
2022/05/17 04:10:24;;;;;;;5.70;3.07;;;9.40;1.00;;;;;;10343405;28;20502;-81
2022/05/17 04:15:45;;;;;;;4.97;2.00;;;9.40;1.00;;;;;;10375057;28;20211;-82
2022/05/17 04:21:07;;;;;;;3.43;2.30;;;9.40;1.00;;;;;;10384480;28;20206;-82
2022/05/17 04:26:28;;;;;;;8.97;3.97;;;9.50;1.00;;;;;;10383022;28;20480;-82
2022/05/17 04:31:50;;;;;;;10.93;4.77;;;9.60;1.00;;;;;;10382901;28;20200;-81
2022/05/17 04:37:11;;;;;;;6.30;2.80;;;9.80;1.00;;;;;;10383064;28;20263;-81
2022/05/17 04:42:32;;;;;;;5.47;1.97;;;9.90;1.00;;;;;;10368860;28;20228;-81
2022/05/17 04:47:54;;;;;;;9.63;2.73;;;9.90;1.00;;;;;;10380188;28;20201;-82
2022/05/17 04:53:15;;;;;;;2.80;1.47;;;10.00;1.00;;;;;;10383057;28;20501;-83
2022/05/17 04:58:37;;;;;;;4.60;2.10;;;10.00;1.00;;;;;;10369336;28;20199;-82
2022/05/17 05:03:59;;;;;;;3.23;1.30;;;10.10;1.00;;;;;;10395815;28;20262;-82
2022/05/17 05:09:20;;;;;;;3.70;1.60;;;10.20;1.00;;;;;;10355394;28;20201;-84
2022/05/17 05:14:41;;;;;;;4.53;1.57;;;10.30;99.90;;;;;;10367596;28;20398;-82
2022/05/17 05:20:05;;;;;;;6.50;1.83;;;10.30;99.90;;;;;;10382083;28;20215;-83
2022/05/17 05:25:27;;;;;;;6.30;1.80;;;10.50;99.90;;;;;;10382313;28;20297;-82
2022/05/17 05:30:48;;;;;;;3.20;1.60;;;10.70;1.80;;;;;;10371870;28;20395;-84
2022/05/17 05:36:10;;;;;;;2.30;1.37;;;11.00;1.00;;;;;;10370490;28;20312;-86
2022/05/17 05:41:31;;;;;;;1.63;1.03;;;11.20;1.00;;;;;;10383089;28;20208;-89
2022/05/17 05:46:53;;;;;;;2.57;1.30;;;11.40;1.00;;;;;;10370756;28;20239;-88
2022/05/17 05:52:14;;;;;;;1.02;0.70;;;11.50;1.00;;;;;;10355051;28;20204;-87
2022/05/17 05:57:36;;;;;;;1.47;0.70;;;11.70;1.00;;;;;;10353894;28;20205;-86
2022/05/17 06:02:57;;;;;;;2.80;1.23;;;11.90;99.90;;;;;;10367407;28;20459;-89
2022/05/17 06:08:21;;;;;;;3.03;1.40;;;12.10;1.00;;;;;;10347323;28;20272;-86
2022/05/17 06:13:42;;;;;;;8.30;1.77;;;12.30;1.00;;;;;;10379972;28;20215;-83
2022/05/17 06:19:03;;;;;;;3.53;1.05;;;12.70;99.90;;;;;;10393686;28;20247;-85
2022/05/17 06:24:25;;;;;;;1.73;0.82;;;13.20;1.00;;;;;;10379035;28;20241;-83
2022/05/17 06:29:48;;;;;;;3.72;1.45;;;13.50;99.90;;;;;;10366674;28;20206;-84
2022/05/17 06:35:11;;;;;;;1.65;0.93;;;14.10;99.90;;;;;;10367705;28;20310;-84
2022/05/17 06:40:33;;;;;;;3.10;1.40;;;14.70;1.00;;;;;;10394785;28;20202;-82
2022/05/17 06:45:56;;;;;;;4.18;1.17;;;15.50;1.00;;;;;;10377042;28;20231;-86
2022/05/17 06:51:17;;;;;;;2.50;0.82;;;16.00;1.00;;;;;;10365503;28;20544;-87
2022/05/17 06:56:38;;;;;;;0.77;0.73;;;16.10;9.80;;;;;;10378020;28;20221;-86
2022/05/17 07:02:00;;;;;;;1.52;0.80;;;16.80;1.00;;;;;;10378478;28;20206;-83
2022/05/17 07:07:22;;;;;;;2.47;0.95;;;17.10;1.00;;;;;;10365214;28;20203;-82
2022/05/17 07:18:26;;;;;;;6.30;1.48;;;18.10;1.00;;;;;;10364178;28;20185;-81
2022/05/17 07:23:48;;;;;;;6.90;1.42;;;18.60;1.00;;;;;;10349542;28;20245;-84
2022/05/17 07:29:11;;;;;;;2.70;0.93;;;18.90;1.00;;;;;;10370286;28;20205;-81
2022/05/17 07:34:33;;;;;;;1.67;0.75;;;19.00;1.00;;;;;;10370743;28;20473;-80
2022/05/17 07:39:54;;;;;;;2.25;0.93;;;18.60;1.00;;;;;;10381783;28;20204;-85
2022/05/17 07:45:16;;;;;;;5.22;1.30;;;19.50;1.00;;;;;;10388509;28;20236;-86
2022/05/17 07:50:38;;;;;;;1.00;0.60;;;20.40;99.90;;;;;;10369787;28;20239;-81
2022/05/17 07:56:02;;;;;;;1.88;0.90;;;19.70;99.90;;;;;;10374299;28;20675;-81
2022/05/17 08:01:23;;;;;;;2.13;1.17;;;19.40;99.90;;;;;;10360133;28;20507;-80
2022/05/17 08:06:46;;;;;;;2.08;0.90;;;19.60;99.90;;;;;;10393446;28;20227;-87
2022/05/17 08:12:10;;;;;;;5.35;1.10;;;19.40;99.90;;;;;;10370794;28;20211;-82
2022/05/17 08:17:32;;;;;;;2.55;1.40;;;19.00;99.90;;;;;;10366034;28;20204;-79
2022/05/17 08:22:54;;;;;;;2.42;0.98;;;18.80;99.90;;;;;;10394117;28;20287;-81
2022/05/17 08:28:15;;;;;;;5.60;1.98;;;19.50;99.90;;;;;;10379251;28;20200;-81
2022/05/17 08:33:38;;;;;;;3.80;0.80;;;20.30;99.90;;;;;;10363258;28;20229;-80
2022/05/17 08:39:00;;;;;;;5.43;0.98;;;20.60;99.90;;;;;;10391927;28;20207;-80
2022/05/17 08:44:48;;;;;;;1.65;0.70;;;21.00;99.90;;;;;;10384544;28;20245;-82
2022/05/17 08:50:14;;;;;;;2.25;0.88;;;21.50;99.90;;;;;;10380604;28;20277;-79
2022/05/17 08:55:40;;;;;;;1.50;0.73;;;22.30;99.90;;;;;;10348638;28;20193;-80
2022/05/17 09:01:12;;;;;;;3.15;1.20;;;22.50;99.90;;;;;;10379635;28;20209;-83
2022/05/17 09:06:50;;;;;;;5.55;2.10;;;22.70;99.90;;;;;;10367752;28;20299;-85
2022/05/17 09:12:44;;;;;;;2.85;0.90;;;23.20;99.90;;;;;;10379713;28;20265;-82
2022/05/17 09:18:10;;;;;;;8.20;3.05;;;23.70;99.90;;;;;;10369743;28;20224;-82
2022/05/17 09:23:31;;;;;;;3.42;1.73;;;23.80;99.90;;;;;;10379795;28;20251;-84
2022/05/17 09:28:55;;;;;;;2.10;1.23;;;23.90;99.90;;;;;;10360496;28;20508;-85
2022/05/17 09:34:27;;;;;;;2.60;1.02;;;24.20;99.90;;;;;;10365963;28;20259;-81
2022/05/17 09:39:51;;;;;;;1.58;0.60;;;24.10;88.50;;;;;;10366300;28;20279;-83
2022/05/17 09:45:18;;;;;;;2.30;1.55;;;23.60;58.10;;;;;;10388779;28;20308;-80
2022/05/17 09:56:38;;;;;;;3.00;1.08;;;23.10;36.90;;;;;;10342155;28;20497;-85
2022/05/17 10:02:01;;;;;;;3.10;1.75;;;22.90;39.10;;;;;;10349333;28;20217;-85
2022/05/17 10:07:29;;;;;;;1.48;0.75;;;23.60;42.00;;;;;;10375942;28;20229;-85
2022/05/17 10:12:56;;;;;;;1.88;1.00;;;22.90;24.80;;;;;;10353200;28;20210;-84
2022/05/17 10:18:26;;;;;;;3.13;1.13;;;22.90;27.20;;;;;;10325181;28;20472;-89
2022/05/17 10:24:29;;;;;;;1.60;0.90;;;23.80;47.10;;;;;;10369746;28;20221;-82
2022/05/17 10:29:57;;;;;;;1.45;0.90;;;23.30;38.80;;;;;;10360031;28;20510;-84
2022/05/17 10:35:42;;;;;;;1.83;0.82;;;24.00;53.00;;;;;;10390193;28;20231;-86
2022/05/17 10:41:11;;;;;;;3.15;1.10;;;24.40;35.80;;;;;;10380350;28;20208;-90
2022/05/17 10:46:38;;;;;;;4.65;0.80;;;24.60;41.90;;;;;;10373999;28;20321;-83
2022/05/17 10:52:05;;;;;;;5.25;1.10;;;24.50;41.60;;;;;;10357520;28;20213;-84
2022/05/17 10:57:43;;;;;;;4.32;0.85;;;25.00;37.80;;;;;;10369828;28;20200;-85
2022/05/17 11:03:33;;;;;;;3.70;1.60;;;25.40;28.20;;;;;;10381542;28;20229;-83
2022/05/17 11:09:11;;;;;;;1.83;0.88;;;24.10;16.80;;;;;;10347278;28;20213;-82
2022/05/17 11:14:45;;;;;;;3.05;1.00;;;22.70;7.70;;;;;;10344937;28;20213;-81
2022/05/17 11:20:32;;;;;;;3.95;0.77;;;22.10;2.60;;;;;;10364534;28;20212;-84
2022/05/17 11:26:10;;;;;;;2.80;1.35;;;21.90;6.70;;;;;;10361262;28;20255;-83
2022/05/17 11:31:55;;;;;;;3.90;1.08;;;22.00;3.60;;;;;;10374255;28;20292;-81
2022/05/17 11:37:32;;;;;;;2.60;0.77;;;22.10;1.00;;;;;;10389460;28;20213;-81
2022/05/17 11:49:00;;;;;;;2.50;1.33;;;23.30;1.00;;;;;;10380653;28;20212;-83
2022/05/17 11:54:42;;;;;;;3.10;1.50;;;23.60;1.00;;;;;;10353456;28;20296;-81
2022/05/17 12:00:29;;;;;;;1.90;1.23;;;23.30;1.00;;;;;;10373221;28;20236;-84
2022/05/17 12:05:51;;;;;;;3.72;1.70;;;23.50;1.00;;;;;;10368832;28;20236;-82
2022/05/17 12:11:12;;;;;;;3.15;1.15;;;22.70;1.00;;;;;;10372592;28;20251;-83
2022/05/17 12:16:36;;;;;;;2.40;0.98;;;21.80;1.00;;;;;;10357695;28;20209;-83
2022/05/17 12:22:17;;;;;;;2.65;1.05;;;21.80;1.00;;;;;;10369024;28;20219;-86
2022/05/17 12:27:43;;;;;;;2.40;0.82;;;22.00;1.00;;;;;;10369423;28;20232;-85
2022/05/17 12:33:06;;;;;;;3.58;1.02;;;22.20;1.00;;;;;;10343512;28;20238;-78
2022/05/17 12:44:17;;;;;;;2.33;1.30;;;22.40;1.00;;;;;;10395773;28;20235;-79
2022/05/17 12:49:42;;;;;;;3.85;1.15;;;22.40;1.00;;;;;;10368178;28;20435;-79
2022/05/17 12:55:07;;;;;;;3.70;0.85;;;22.40;1.00;;;;;;10379585;28;20212;-84
2022/05/17 13:00:29;;;;;;;3.92;1.33;;;22.50;1.00;;;;;;10393435;28;20197;-82
2022/05/17 13:05:53;;;;;;;5.22;1.45;;;22.20;1.00;;;;;;10374158;28;20228;-83
2022/05/17 13:11:26;;;;;;;4.13;1.45;;;21.70;1.00;;;;;;10372678;28;20205;-83
2022/05/17 13:16:50;;;;;;;7.40;1.92;;;21.80;1.00;;;;;;10381659;28;20193;-82
2022/05/17 13:22:17;;;;;;;3.78;0.80;;;21.60;1.00;;;;;;10378755;28;20449;-82
2022/05/17 13:27:46;;;;;;;3.33;1.45;;;21.90;1.00;;;;;;10366167;28;20306;-81
2022/05/17 13:33:11;;;;;;;8.40;3.53;;;22.00;1.00;;;;;;10379215;28;20547;-82
2022/05/17 13:38:35;;;;;;;1.33;1.10;;;22.00;1.00;;;;;;10378866;28;20213;-82
2022/05/17 13:44:00;;;;;;;2.28;1.10;;;21.70;1.00;;;;;;10376853;28;20220;-82
2022/05/17 13:49:48;;;;;;;1.98;1.10;;;21.60;1.00;;;;;;10376769;28;20220;-82
2022/05/17 13:55:26;;;;;;;2.13;1.20;;;21.50;1.00;;;;;;10392600;28;20213;-83
2022/05/17 14:01:23;;;;;;;1.95;0.88;;;21.20;1.00;;;;;;10364068;28;20209;-83
2022/05/17 14:07:00;;;;;;;2.60;1.20;;;21.30;1.00;;;;;;10376728;28;20224;-82
2022/05/17 14:13:21;;;;;;;4.03;1.20;;;21.10;1.00;;;;;;10380360;28;20236;-82
2022/05/17 14:18:43;;;;;;;3.92;0.88;;;20.90;1.00;;;;;;10378344;28;20189;-85
2022/05/17 14:24:04;;;;;;;0.98;0.80;;;20.90;1.00;;;;;;10345223;28;20558;-85
2022/05/17 14:29:30;;;;;;;3.53;0.70;;;20.90;1.00;;;;;;10393274;28;20201;-85
2022/05/17 14:34:54;;;;;;;3.17;1.30;;;20.60;1.00;;;;;;10391066;28;20248;-82
2022/05/17 14:40:15;;;;;;;11.57;1.88;;;20.40;1.00;;;;;;10364207;28;20757;-84
2022/05/17 14:45:37;;;;;;;1.55;0.95;;;20.10;1.00;;;;;;10363429;28;20440;-85
2022/05/17 14:51:03;;;;;;;5.38;1.20;;;20.00;1.00;;;;;;10362816;28;20393;-82
2022/05/17 14:56:26;;;;;;;2.78;1.00;;;19.90;1.00;;;;;;10322034;28;20418;-82
2022/05/17 15:01:48;;;;;;;3.22;1.40;;;19.70;1.00;;;;;;10322973;28;20492;-81
2022/05/17 15:07:23;;;;;;;2.42;1.38;;;19.40;1.00;;;;;;10338896;28;20253;-82
2022/05/17 15:12:44;;;;;;;7.25;1.38;;;19.10;1.00;;;;;;10339508;28;20450;-82
2022/05/17 15:18:09;;;;;;;3.42;1.40;;;18.90;1.00;;;;;;10332175;28;20197;-81
2022/05/17 15:23:34;;;;;;;7.40;3.67;;;18.80;1.00;;;;;;10348802;28;20200;-82
2022/05/17 15:28:56;;;;;;;8.60;1.73;;;18.70;1.00;;;;;;10348791;28;20206;-82
2022/05/17 15:34:22;;;;;;;4.20;1.80;;;18.50;1.00;;;;;;10348341;28;20237;-82
2022/05/17 15:39:46;;;;;;;1.95;1.20;;;18.20;1.00;;;;;;10348748;28;20224;-82
2022/05/17 15:45:09;;;;;;;1.83;1.27;;;18.10;1.00;;;;;;10334051;28;20228;-82
2022/05/17 15:56:12;;;;;;;4.88;1.90;;;17.80;1.00;;;;;;10307308;28;20207;-82
2022/05/17 16:01:34;;;;;;;3.00;1.45;;;17.70;1.00;;;;;;10313909;28;20261;-82
2022/05/17 16:08:01;;;;;;;2.08;1.30;;;17.60;1.00;;;;;;10333940;28;20329;-82
2022/05/17 16:12:39;;;;;;;2.17;1.33;;;17.40;1.00;;;;;;10346843;28;20203;-81
2022/05/17 16:18:17;;;;;;;7.85;1.60;;;17.20;1.00;;;;;;10347004;28;20260;-81
2022/05/17 16:23:39;;;;;;;2.92;1.05;;;16.90;1.00;;;;;;10320361;28;20199;-81
2022/05/17 16:29:02;;;;;;;2.20;1.05;;;16.60;1.00;;;;;;10315812;28;20200;-82
2022/05/17 16:34:31;;;;;;;1.70;1.10;;;16.40;1.00;;;;;;10320046;28;20412;-81
2022/05/17 16:39:53;;;;;;;3.15;1.60;;;16.50;1.00;;;;;;10319447;28;20253;-82
2022/05/17 16:45:14;;;;;;;2.25;1.08;;;16.40;1.00;;;;;;10345460;28;20235;-82
2022/05/17 16:50:41;;;;;;;4.18;1.23;;;16.10;1.00;;;;;;10345045;28;20437;-82
2022/05/17 16:56:04;;;;;;;1.80;1.10;;;15.80;1.00;;;;;;10305353;28;20205;-82
2022/05/17 17:01:27;;;;;;;6.40;1.30;;;15.80;1.00;;;;;;10308460;28;20506;-82
2022/05/17 17:06:48;;;;;;;2.33;1.45;;;15.70;1.00;;;;;;10334088;28;20234;-82
2022/05/17 17:12:10;;;;;;;5.72;1.92;;;15.70;1.00;;;;;;10318499;28;20200;-81
2022/05/17 17:17:35;;;;;;;1.90;1.27;;;15.50;1.00;;;;;;10358562;28;20217;-82
2022/05/17 17:22:56;;;;;;;4.78;2.22;;;15.40;1.00;;;;;;10344329;28;20262;-82
2022/05/17 17:28:18;;;;;;;5.32;2.15;;;15.10;1.00;;;;;;10343850;28;20316;-82
2022/05/17 17:39:20;;;;;;;3.42;2.10;;;14.70;1.00;;;;;;10343201;28;20201;-82
2022/05/17 17:44:46;;;;;;;5.85;2.58;;;14.40;1.00;;;;;;10343535;28;20277;-82
2022/05/17 17:50:08;;;;;;;2.63;1.42;;;14.40;1.00;;;;;;10357518;28;20279;-82
2022/05/17 17:55:34;;;;;;;3.88;2.20;;;14.10;1.00;;;;;;10332815;28;20205;-81
2022/05/17 18:00:55;;;;;;;6.43;1.83;;;13.90;1.00;;;;;;10289417;28;20212;-82
2022/05/17 18:06:16;;;;;;;7.88;2.42;;;13.70;1.00;;;;;;10368308;28;20228;-82
2022/05/17 18:11:38;;;;;;;4.43;2.30;;;13.50;1.00;;;;;;10342386;28;20197;-81
2022/05/17 18:17:00;;;;;;;6.13;2.70;;;13.30;1.00;;;;;;10342427;28;20487;-81
2022/05/17 18:22:21;;;;;;;6.07;1.80;;;13.20;1.00;;;;;;10341878;28;20507;-82
2022/05/17 18:27:49;;;;;;;4.05;2.50;;;13.00;1.00;;;;;;10341912;28;20233;-81
2022/05/17 18:33:14;;;;;;;6.68;2.58;;;12.90;1.00;;;;;;10355160;28;20232;-81
2022/05/17 18:38:35;;;;;;;5.18;2.17;;;12.70;1.00;;;;;;10328183;28;20203;-82
2022/05/17 18:43:57;;;;;;;5.00;2.63;;;12.60;1.00;;;;;;10355384;28;20231;-81
2022/05/17 18:49:18;;;;;;;5.80;3.17;;;12.40;1.00;;;;;;10327028;28;20431;-81
2022/05/17 18:54:40;;;;;;;4.43;2.88;;;12.40;1.00;;;;;;10330573;28;20210;-82
2022/05/17 19:00:04;;;;;;;6.80;2.97;;;12.30;1.00;;;;;;10287601;28;20209;-81
2022/05/17 19:05:40;;;;;;;4.93;2.90;;;12.10;1.00;;;;;;10340659;28;20231;-81
2022/05/17 19:16:44;;;;;;;4.90;2.50;;;11.80;1.00;;;;;;10354304;28;20195;-81
2022/05/17 19:22:26;;;;;;;4.10;2.60;;;11.60;1.00;;;;;;10354370;28;20191;-81
2022/05/17 19:27:47;;;;;;;7.17;4.13;;;11.50;1.00;;;;;;10326643;28;20263;-83
2022/05/17 19:33:10;;;;;;;11.15;5.38;;;11.40;1.00;;;;;;10339696;28;20227;-83
2022/05/17 19:44:12;;;;;;;5.45;2.97;;;11.30;1.00;;;;;;10339736;28;20455;-82
2022/05/17 19:49:48;;;;;;;4.53;2.73;;;11.20;1.00;;;;;;10340617;28;20206;-83
2022/05/17 19:55:10;;;;;;;5.72;3.22;;;11.00;1.00;;;;;;10315718;28;20497;-82
2022/05/17 20:00:35;;;;;;;5.35;3.15;;;10.90;1.00;;;;;;10300841;28;20205;-82
2022/05/17 20:05:57;;;;;;;11.70;4.77;;;10.70;1.00;;;;;;10347480;28;20523;-82
2022/05/17 20:11:20;;;;;;;9.37;4.43;;;10.60;4.90;;;;;;10322713;28;20432;-82
2022/05/17 20:16:41;;;;;;;9.43;4.28;;;10.60;26.10;;;;;;10347124;28;20505;-82
2022/05/17 20:22:04;;;;;;;6.82;3.60;;;10.50;45.90;;;;;;10346485;28;20272;-83
2022/05/17 20:27:25;;;;;;;7.23;4.57;;;10.50;59.90;;;;;;10346365;28;20416;-83
2022/05/17 20:32:47;;;;;;;15.40;8.03;;;10.30;99.90;;;;;;10345707;28;20474;-82
2022/05/17 20:38:14;;;;;;;11.67;5.17;;;10.30;99.90;;;;;;10346324;28;20417;-82
2022/05/17 20:43:35;;;;;;;14.37;6.90;;;10.20;99.90;;;;;;10345824;28;20237;-82
2022/05/17 20:48:57;;;;;;;13.63;6.50;;;10.10;99.90;;;;;;10345145;28;20214;-82
2022/05/17 20:54:19;;;;;;;14.10;6.40;;;10.00;99.90;;;;;;10331879;28;20207;-82
2022/05/17 20:59:42;;;;;;;11.33;4.70;;;;;;;;;;10358742;28;20196;-82
2022/05/17 21:05:07;;;;;;;7.60;4.53;;;9.60;99.90;;;;;;10358891;28;20229;-82
2022/05/17 21:10:31;;;;;;;8.27;4.10;;;9.40;99.90;;;;;;10345606;28;20198;-83
2022/05/17 21:15:53;;;;;;;7.37;4.27;;;9.40;1.00;;;;;;10358600;28;20196;-83
2022/05/17 21:21:14;;;;;;;7.43;3.67;;;9.40;1.00;;;;;;10330858;28;20425;-81
2022/05/17 21:26:53;;;;;;;6.47;3.33;;;9.40;27.00;;;;;;10358138;28;20251;-82
2022/05/17 21:32:14;;;;;;;9.33;3.50;;;9.40;99.90;;;;;;10343844;28;20236;-82
2022/05/17 21:37:37;;;;;;;8.47;4.27;;;9.40;1.00;;;;;;10343942;28;20208;-82
2022/05/17 21:43:00;;;;;;;9.73;5.93;;;9.50;43.30;;;;;;10344074;28;20204;-82
2022/05/17 21:48:22;;;;;;;10.40;6.07;;;9.60;99.90;;;;;;10357764;28;20225;-83
2022/05/17 21:53:43;;;;;;;25.13;12.37;;;9.50;1.00;;;;;;10357490;28;20202;-82
2022/05/17 21:59:11;;;;;;;31.83;16.27;;;9.50;1.00;;;;;;10343430;28;20271;-82
2022/05/17 22:04:33;;;;;;;44.90;24.23;;;9.40;99.90;;;;;;10356350;28;20295;-82
2022/05/17 22:09:54;;;;;;;30.97;16.37;;;9.40;1.00;;;;;;10342716;28;20200;-82
2022/05/17 22:15:16;;;;;;;18.27;9.30;;;9.30;93.60;;;;;;10342354;28;20204;-82
2022/05/17 22:20:39;;;;;;;15.23;7.50;;;9.20;1.00;;;;;;10355846;28;20196;-82
2022/05/17 22:26:01;;;;;;;14.47;6.73;;;9.10;99.90;;;;;;10341596;28;20228;-82
2022/05/17 22:31:22;;;;;;;13.50;6.23;;;;;;;;;;10355523;28;20429;-82
2022/05/17 22:36:44;;;;;;;11.93;5.43;;;;;;;;;;10341286;28;20256;-82
2022/05/17 22:42:06;;;;;;;8.87;4.93;;;8.50;1.00;;;;;;10354741;28;20192;-82
2022/05/17 22:47:28;;;;;;;11.17;4.70;;;;;;;;;;10354842;28;20238;-82
2022/05/17 22:52:50;;;;;;;7.10;4.40;;;8.30;1.00;;;;;;10340559;28;20200;-82
2022/05/17 22:58:11;;;;;;;6.73;3.70;;;8.40;1.00;;;;;;10341002;28;20201;-82
2022/05/17 23:03:33;;;;;;;8.10;5.30;;;8.30;1.00;;;;;;10327334;28;20274;-82
2022/05/17 23:08:55;;;;;;;15.90;7.23;;;8.30;1.00;;;;;;10340432;28;20234;-82
2022/05/17 23:14:18;;;;;;;15.10;7.20;;;8.40;1.00;;;;;;10354602;28;20283;-82
2022/05/17 23:19:39;;;;;;;10.47;6.17;;;8.30;1.00;;;;;;10340529;28;20206;-82
2022/05/17 23:30:41;;;;;;;8.97;5.53;;;;;;;;;;10340288;28;20509;-83
2022/05/17 23:36:03;;;;;;;5.30;3.50;;;8.00;99.90;;;;;;10341492;28;20233;-82
2022/05/17 23:41:26;;;;;;;11.73;5.10;;;7.80;99.90;;;;;;10348499;28;20202;-82
2022/05/17 23:46:47;;;;;;;8.43;5.10;;;7.70;99.90;;;;;;10334297;28;20227;-82
2022/05/17 23:52:08;;;;;;;7.77;4.70;;;7.60;1.00;;;;;;10347330;28;20204;-83
2022/05/17 23:57:31;;;;;;;6.03;4.17;;;7.70;1.00;;;;;;10321374;28;20426;-82
